Time;durP1;ratioP1;P1;durP2;ratioP2;P2;SDS_P1;SDS_P2;PMS_P1;PMS_P2;Temp;Humidity;BMP_temperature;BMP_pressure;BME280_temperature;BME280_humidity;BME280_pressure;Samples;Min_cycle;Max_cycle;Signal;HPM_P1;HPM_P2
2022/07/15 00:00:46;;;;;;;5.40;1.80;;;20.10;51.20;;;;;;20916006;28;20207;-71
2022/07/15 00:10:48;;;;;;;5.70;1.80;;;19.90;52.00;;;;;;20912923;28;20238;-72
2022/07/15 00:20:50;;;;;;;5.33;1.50;;;19.70;52.50;;;;;;20914162;28;20709;-72
2022/07/15 00:30:52;;;;;;;4.20;1.57;;;19.50;52.60;;;;;;20910256;28;20237;-72
2022/07/15 00:40:54;;;;;;;3.40;1.43;;;19.30;53.60;;;;;;20913036;28;20235;-71
2022/07/15 00:50:55;;;;;;;3.93;1.70;;;19.20;54.50;;;;;;20912526;28;20240;-72
2022/07/15 01:00:58;;;;;;;2.20;1.50;;;19.00;54.80;;;;;;20912116;28;20299;-72
2022/07/15 01:11:00;;;;;;;3.27;2.00;;;18.70;54.80;;;;;;20911982;28;20585;-72
2022/07/15 01:21:02;;;;;;;3.47;1.43;;;18.60;55.50;;;;;;20912051;28;20659;-72
2022/07/15 01:31:04;;;;;;;7.03;1.73;;;18.50;56.00;;;;;;20911100;28;20333;-71
2022/07/15 01:41:06;;;;;;;3.40;1.77;;;18.40;56.40;;;;;;20910517;28;20238;-72
2022/07/15 01:51:08;;;;;;;5.80;1.60;;;18.30;57.50;;;;;;20910807;28;20240;-72
2022/07/15 02:01:10;;;;;;;4.67;1.40;;;18.10;57.20;;;;;;20912065;28;20656;-72
2022/07/15 02:11:12;;;;;;;5.40;1.50;;;17.90;57.90;;;;;;20924540;28;20248;-72
2022/07/15 02:21:14;;;;;;;2.90;1.80;;;17.60;57.80;;;;;;20952156;28;20204;-72
2022/07/15 02:31:17;;;;;;;3.77;1.70;;;17.40;58.10;;;;;;21003774;28;20233;-72
2022/07/15 02:41:20;;;;;;;4.93;1.63;;;17.30;58.90;;;;;;21005174;28;20706;-72
2022/07/15 02:51:21;;;;;;;3.47;1.90;;;17.20;58.70;;;;;;21004687;28;20785;-72
2022/07/15 03:01:23;;;;;;;6.50;2.00;;;17.00;58.90;;;;;;21003643;28;20298;-71
2022/07/15 03:11:25;;;;;;;5.60;1.80;;;16.70;59.80;;;;;;21002291;28;20239;-71
2022/07/15 03:21:27;;;;;;;3.53;1.70;;;16.70;60.40;;;;;;21002108;28;20205;-72
2022/07/15 03:31:28;;;;;;;5.67;1.83;;;16.60;60.60;;;;;;21001051;28;20236;-71
2022/07/15 03:41:30;;;;;;;3.03;1.60;;;16.50;61.30;;;;;;21000055;28;20742;-71
2022/07/15 03:51:32;;;;;;;2.50;1.90;;;16.40;61.80;;;;;;20999700;28;20326;-72
2022/07/15 04:01:34;;;;;;;4.30;1.97;;;16.40;62.20;;;;;;20998588;28;20206;-72
2022/07/15 04:11:37;;;;;;;6.60;1.60;;;16.40;62.50;;;;;;20997696;28;20717;-71
2022/07/15 04:21:39;;;;;;;5.87;1.90;;;16.40;62.70;;;;;;20969086;28;20209;-71
2022/07/15 04:31:41;;;;;;;8.00;2.00;;;16.40;62.80;;;;;;20909241;28;20237;-70
2022/07/15 04:41:43;;;;;;;5.73;2.00;;;16.50;63.60;;;;;;20912370;28;20235;-71
2022/07/15 04:51:45;;;;;;;7.27;2.10;;;16.60;63.80;;;;;;20912676;28;20744;-70
2022/07/15 05:01:47;;;;;;;8.70;5.10;;;16.50;63.70;;;;;;20911815;28;20243;-69
2022/07/15 05:11:49;;;;;;;10.87;6.00;;;16.40;63.90;;;;;;20911246;28;20719;-70
2022/07/15 05:21:51;;;;;;;12.43;6.70;;;16.40;64.60;;;;;;20910598;28;20228;-70
2022/07/15 05:31:53;;;;;;;10.23;4.20;;;16.70;64.70;;;;;;20913426;28;20318;-70
2022/07/15 05:41:55;;;;;;;20.27;4.77;;;17.00;64.20;;;;;;21001551;28;20243;-65
2022/07/15 05:51:57;;;;;;;6.37;2.30;;;17.50;62.60;;;;;;21002757;28;20238;-66
2022/07/15 06:01:58;;;;;;;11.83;6.53;;;17.60;62.40;;;;;;21006303;28;20295;-68
2022/07/15 06:12:00;;;;;;;11.60;4.10;;;17.60;60.60;;;;;;21006024;28;20251;-66
2022/07/15 06:22:02;;;;;;;4.00;1.80;;;17.70;61.30;;;;;;20980605;28;20655;-69
2022/07/15 06:32:04;;;;;;;12.57;2.17;;;17.80;60.90;;;;;;20918777;28;20323;-66
2022/07/15 06:42:06;;;;;;;4.67;2.03;;;18.00;60.50;;;;;;20920252;28;20234;-66
2022/07/15 06:52:08;;;;;;;5.27;2.13;;;18.40;59.90;;;;;;20918390;28;20236;-67
2022/07/15 07:02:10;;;;;;;9.33;2.87;;;18.70;59.30;;;;;;20973323;28;20212;-71
2022/07/15 07:12:12;;;;;;;11.13;4.23;;;19.00;59.00;;;;;;20999530;28;20233;-70
2022/07/15 07:22:14;;;;;;;14.30;5.57;;;19.40;58.70;;;;;;20999542;28;20207;-69
2022/07/15 07:32:15;;;;;;;54.70;23.20;;;19.80;58.40;;;;;;20998688;28;20329;-69
2022/07/15 07:42:19;;;;;;;8.17;4.30;;;20.00;57.90;;;;;;20993850;28;20272;-67
2022/07/15 07:52:21;;;;;;;26.63;11.63;;;20.40;57.40;;;;;;20992068;28;20539;-69
2022/07/15 08:02:28;;;;;;;8.40;2.07;;;20.60;57.00;;;;;;20990310;28;20203;-68
2022/07/15 08:12:30;;;;;;;5.80;2.40;;;21.00;56.50;;;;;;20989857;28;20238;-68
2022/07/15 08:22:32;;;;;;;6.83;1.97;;;21.00;56.00;;;;;;20967257;28;20676;-69
2022/07/15 08:32:34;;;;;;;3.30;1.43;;;21.30;55.70;;;;;;20909699;28;20267;-71
2022/07/15 08:42:42;;;;;;;6.83;3.50;;;21.40;55.10;;;;;;20912169;28;20306;-71
2022/07/15 08:52:46;;;;;;;3.93;1.70;;;21.70;54.60;;;;;;20911360;28;20261;-71
2022/07/15 09:02:48;;;;;;;3.80;1.60;;;22.00;54.00;;;;;;20910468;28;20212;-69
2022/07/15 09:12:51;;;;;;;6.60;1.67;;;22.30;53.60;;;;;;20916562;28;20243;-70
2022/07/15 09:22:58;;;;;;;3.73;2.20;;;22.40;53.40;;;;;;20926800;28;20215;-70
2022/07/15 09:43:22;;;;;;;7.87;2.20;;;22.30;53.10;;;;;;20924216;28;20581;-68
2022/07/15 09:53:24;;;;;;;5.97;2.47;;;22.40;53.00;;;;;;20922286;28;20699;-70
2022/07/15 10:03:26;;;;;;;39.23;18.93;;;22.60;52.60;;;;;;20924429;28;20247;-70
2022/07/15 10:13:35;;;;;;;4.60;1.73;;;22.70;52.20;;;;;;20915608;28;20238;-70
2022/07/15 10:24:02;;;;;;;6.47;1.60;;;22.70;51.60;;;;;;20914585;28;20267;-69
2022/07/15 10:34:04;;;;;;;5.07;2.03;;;22.70;51.20;;;;;;20914024;28;20207;-70
2022/07/15 10:44:10;;;;;;;5.40;1.90;;;22.60;50.90;;;;;;20914978;28;20238;-70
2022/07/15 10:54:18;;;;;;;4.07;2.30;;;22.80;50.80;;;;;;20918079;28;20303;-69
2022/07/15 11:04:22;;;;;;;5.40;3.00;;;23.20;50.20;;;;;;20915934;28;20208;-70
2022/07/15 11:14:43;;;;;;;4.53;2.20;;;23.30;50.20;;;;;;20910397;28;20290;-70
2022/07/15 11:24:44;;;;;;;9.40;5.10;;;22.90;50.10;;;;;;20910400;28;20233;-69
2022/07/15 11:34:55;;;;;;;4.33;2.70;;;22.80;50.50;;;;;;20916060;28;20214;-69
2022/07/15 11:44:57;;;;;;;9.53;2.50;;;22.90;50.40;;;;;;20913421;28;20275;-69
2022/07/15 11:55:05;;;;;;;9.83;2.47;;;23.30;50.30;;;;;;20913826;28;20555;-69
2022/07/15 12:05:08;;;;;;;5.07;3.60;;;23.60;50.00;;;;;;20913185;28;20323;-70
2022/07/15 12:15:10;;;;;;;7.87;2.57;;;23.20;50.30;;;;;;20912355;28;20569;-70
2022/07/15 12:25:20;;;;;;;6.93;3.80;;;23.30;50.70;;;;;;20911611;28;20750;-70
2022/07/15 12:35:22;;;;;;;8.27;2.30;;;23.80;50.00;;;;;;20908218;28;20231;-69
2022/07/15 12:45:34;;;;;;;9.47;3.00;;;24.20;48.90;;;;;;20908693;28;20243;-69
2022/07/15 12:55:42;;;;;;;7.60;2.60;;;24.30;48.70;;;;;;20910395;28;20542;-70
2022/07/15 13:05:46;;;;;;;5.27;2.67;;;24.30;48.40;;;;;;20909224;28;20326;-70
2022/07/15 13:15:49;;;;;;;5.00;2.63;;;24.20;47.70;;;;;;20904058;28;20206;-69
2022/07/15 13:25:52;;;;;;;9.53;3.10;;;24.20;46.90;;;;;;20908431;28;20326;-70
2022/07/15 13:35:57;;;;;;;5.30;3.13;;;24.00;47.70;;;;;;20909570;28;20578;-70
2022/07/15 13:45:59;;;;;;;6.00;3.33;;;23.70;48.00;;;;;;20908649;28;20244;-69
2022/07/15 13:56:01;;;;;;;6.33;3.30;;;23.70;47.90;;;;;;20910893;28;20244;-69
2022/07/15 14:06:02;;;;;;;6.03;3.50;;;23.80;47.60;;;;;;20925079;28;20695;-69
2022/07/15 14:16:05;;;;;;;10.33;2.50;;;23.70;47.00;;;;;;20924016;28;20790;-70
2022/07/15 14:26:07;;;;;;;7.03;2.50;;;23.70;46.70;;;;;;20921717;28;20228;-70
2022/07/15 14:36:10;;;;;;;6.33;3.93;;;23.70;46.60;;;;;;20920609;28;20200;-70
2022/07/15 14:46:13;;;;;;;4.07;2.60;;;23.80;46.30;;;;;;20921615;28;20248;-69
2022/07/15 14:56:15;;;;;;;6.13;2.30;;;24.10;45.80;;;;;;20920864;28;20211;-70
2022/07/15 15:06:17;;;;;;;6.67;3.90;;;24.80;43.90;;;;;;20920833;28;20267;-69
2022/07/15 15:16:23;;;;;;;3.47;2.30;;;24.10;44.50;;;;;;20919467;28;20211;-69
2022/07/15 15:26:45;;;;;;;3.70;2.40;;;24.20;44.70;;;;;;20919771;28;20656;-69
2022/07/15 15:36:46;;;;;;;4.47;2.40;;;24.70;44.20;;;;;;20917981;28;20291;-69
2022/07/15 15:46:49;;;;;;;3.70;2.60;;;24.60;44.20;;;;;;20917341;28;20243;-70
2022/07/15 15:56:51;;;;;;;4.47;2.47;;;24.40;44.20;;;;;;20916433;28;20204;-70
2022/07/15 16:06:53;;;;;;;5.07;3.67;;;24.50;44.30;;;;;;20915450;28;20323;-70
2022/07/15 16:16:55;;;;;;;6.83;2.60;;;25.10;43.80;;;;;;20915208;28;20212;-70
2022/07/15 16:26:59;;;;;;;3.87;2.40;;;26.30;41.40;;;;;;20912796;28;20709;-69
2022/07/15 16:37:01;;;;;;;3.53;2.23;;;25.20;42.20;;;;;;20910284;28;20322;-70
2022/07/15 16:47:03;;;;;;;8.03;2.70;;;24.90;42.50;;;;;;20913250;28;20266;-70
2022/07/15 16:57:05;;;;;;;4.00;2.30;;;24.50;42.60;;;;;;20912563;28;20629;-69
2022/07/15 17:07:07;;;;;;;5.13;2.53;;;24.50;42.60;;;;;;20912058;28;20242;-70
2022/07/15 17:17:09;;;;;;;4.13;2.30;;;24.40;42.80;;;;;;20911803;28;20295;-70
2022/07/15 17:27:11;;;;;;;6.47;2.60;;;24.40;42.90;;;;;;20911216;28;20594;-70
2022/07/15 17:37:13;;;;;;;3.77;2.27;;;24.50;42.50;;;;;;20923059;28;20214;-69
2022/07/15 17:47:15;;;;;;;2.90;2.13;;;24.30;42.70;;;;;;20926698;28;20257;-70
2022/07/15 17:57:16;;;;;;;4.97;3.17;;;24.40;42.70;;;;;;20926344;28;20295;-70
2022/07/15 18:07:18;;;;;;;5.43;2.70;;;24.70;42.30;;;;;;20925460;28;20600;-70
2022/07/15 18:17:20;;;;;;;3.37;2.30;;;24.00;42.80;;;;;;20925207;28;20660;-70
2022/07/15 18:27:22;;;;;;;3.97;3.07;;;23.70;42.90;;;;;;20922761;28;20236;-70
2022/07/15 18:37:24;;;;;;;6.27;3.20;;;23.50;43.10;;;;;;20919726;28;20564;-70
2022/07/15 18:47:25;;;;;;;4.03;2.40;;;23.20;43.20;;;;;;20920262;28;20244;-69
2022/07/15 18:57:27;;;;;;;3.77;2.30;;;23.00;43.60;;;;;;20921554;28;20226;-70
2022/07/15 19:07:29;;;;;;;4.90;2.37;;;22.80;44.00;;;;;;20921480;28;20683;-70
2022/07/15 19:17:32;;;;;;;2.87;1.90;;;22.60;44.30;;;;;;20920417;28;20298;-70
2022/07/15 19:27:33;;;;;;;5.40;2.10;;;22.40;44.50;;;;;;20919230;28;20234;-70
2022/07/15 19:37:39;;;;;;;9.10;2.30;;;22.20;44.80;;;;;;20918416;28;20315;-70
2022/07/15 19:47:43;;;;;;;3.77;2.27;;;22.00;45.50;;;;;;20917484;28;20285;-70
2022/07/15 19:57:45;;;;;;;7.97;2.50;;;21.90;46.20;;;;;;20916616;28;20678;-69
2022/07/15 20:07:47;;;;;;;6.63;2.80;;;21.70;46.70;;;;;;20915936;28;20235;-69
2022/07/15 20:17:53;;;;;;;5.63;2.30;;;21.50;47.20;;;;;;20915574;28;20214;-70
2022/07/15 20:27:55;;;;;;;6.87;3.50;;;21.30;47.40;;;;;;20936861;28;20239;-70
2022/07/15 20:37:57;;;;;;;5.37;2.50;;;21.00;48.00;;;;;;20995131;28;20212;-70
2022/07/15 20:47:59;;;;;;;4.97;2.20;;;20.80;48.60;;;;;;20996203;28;20717;-70
2022/07/15 20:58:01;;;;;;;5.47;2.37;;;20.70;48.80;;;;;;20995699;28;20210;-70
2022/07/15 21:08:03;;;;;;;4.70;2.80;;;20.50;49.20;;;;;;20995001;28;20237;-69
2022/07/15 21:18:05;;;;;;;5.83;2.43;;;20.20;49.90;;;;;;20995256;28;20678;-70
2022/07/15 21:28:06;;;;;;;5.93;2.60;;;20.00;50.80;;;;;;20994342;28;20240;-69
2022/07/15 21:38:08;;;;;;;5.43;2.83;;;19.80;51.10;;;;;;20993801;28;20300;-69
2022/07/15 21:48:10;;;;;;;5.30;3.40;;;19.70;51.50;;;;;;20993778;28;20245;-69
2022/07/15 21:58:13;;;;;;;4.33;2.57;;;19.50;52.30;;;;;;20993377;28;20209;-70
2022/07/15 22:08:15;;;;;;;8.00;2.50;;;19.10;53.10;;;;;;20992881;28;20252;-70
2022/07/15 22:18:17;;;;;;;5.60;2.60;;;18.90;53.70;;;;;;20993786;28;20204;-69
2022/07/15 22:28:20;;;;;;;5.93;2.77;;;18.70;53.70;;;;;;21001757;28;20245;-69
2022/07/15 22:38:22;;;;;;;2.50;2.10;;;18.60;54.20;;;;;;21003710;28;20298;-70
2022/07/15 22:48:23;;;;;;;5.70;2.93;;;18.30;54.60;;;;;;21005522;28;20340;-70
2022/07/15 22:58:26;;;;;;;6.27;2.53;;;18.20;55.10;;;;;;21004601;28;20615;-70
2022/07/15 23:08:28;;;;;;;7.20;2.57;;;17.90;55.60;;;;;;21003570;28;20758;-69
2022/07/15 23:18:30;;;;;;;7.00;3.07;;;17.70;56.10;;;;;;21003190;28;20301;-70
2022/07/15 23:28:32;;;;;;;5.10;2.53;;;17.60;56.70;;;;;;21001417;28;20245;-70
2022/07/15 23:38:33;;;;;;;6.17;2.70;;;17.40;57.00;;;;;;21001234;28;20248;-70
2022/07/15 23:48:35;;;;;;;8.03;3.90;;;17.20;57.50;;;;;;21000599;28;20783;-69
2022/07/15 23:58:37;;;;;;;4.27;2.60;;;17.10;57.80;;;;;;20999546;28;20729;-68
